sensor_id;sensor_type;location;lat;lon;timestamp;P1;durP1;ratioP1;P2;durP2;ratioP2
22284;SDS011;11311;52.192;20.900;2023-02-15T00:01:37;81.70;;;50.17;;
22284;SDS011;11311;52.192;20.900;2023-02-15T00:04:07;74.45;;;46.33;;
22284;SDS011;11311;52.192;20.900;2023-02-15T00:06:36;76.47;;;47.92;;
22284;SDS011;11311;52.192;20.900;2023-02-15T00:09:05;74.00;;;49.72;;
22284;SDS011;11311;52.192;20.900;2023-02-15T00:11:34;69.35;;;47.70;;
22284;SDS011;11311;52.192;20.900;2023-02-15T00:14:19;76.43;;;50.30;;
22284;SDS011;11311;52.192;20.900;2023-02-15T00:16:49;75.25;;;49.30;;
22284;SDS011;11311;52.192;20.900;2023-02-15T00:19:19;72.38;;;48.78;;
22284;SDS011;11311;52.192;20.900;2023-02-15T00:21:49;72.65;;;49.55;;
22284;SDS011;11311;52.192;20.900;2023-02-15T00:24:18;73.93;;;48.95;;
22284;SDS011;11311;52.192;20.900;2023-02-15T00:26:47;69.85;;;49.20;;
22284;SDS011;11311;52.192;20.900;2023-02-15T00:29:19;71.60;;;49.70;;
22284;SDS011;11311;52.192;20.900;2023-02-15T00:31:48;73.28;;;48.67;;
22284;SDS011;11311;52.192;20.900;2023-02-15T00:34:18;76.88;;;50.95;;
22284;SDS011;11311;52.192;20.900;2023-02-15T00:36:47;66.38;;;47.08;;
22284;SDS011;11311;52.192;20.900;2023-02-15T00:39:17;71.07;;;43.63;;
22284;SDS011;11311;52.192;20.900;2023-02-15T00:41:47;77.88;;;48.88;;
22284;SDS011;11311;52.192;20.900;2023-02-15T00:44:18;77.57;;;50.67;;
22284;SDS011;11311;52.192;20.900;2023-02-15T00:46:47;78.45;;;52.17;;
22284;SDS011;11311;52.192;20.900;2023-02-15T00:49:16;72.18;;;49.10;;
22284;SDS011;11311;52.192;20.900;2023-02-15T00:51:45;75.10;;;50.15;;
22284;SDS011;11311;52.192;20.900;2023-02-15T00:54:14;79.25;;;51.65;;
22284;SDS011;11311;52.192;20.900;2023-02-15T00:56:43;71.75;;;47.90;;
22284;SDS011;11311;52.192;20.900;2023-02-15T00:59:12;77.25;;;48.42;;
22284;SDS011;11311;52.192;20.900;2023-02-15T01:01:42;73.97;;;49.30;;
22284;SDS011;11311;52.192;20.900;2023-02-15T01:04:12;75.55;;;49.30;;
22284;SDS011;11311;52.192;20.900;2023-02-15T01:06:41;71.68;;;48.25;;
22284;SDS011;11311;52.192;20.900;2023-02-15T01:09:10;68.70;;;47.28;;
22284;SDS011;11311;52.192;20.900;2023-02-15T01:11:40;71.68;;;45.80;;
22284;SDS011;11311;52.192;20.900;2023-02-15T01:14:09;74.32;;;46.30;;
22284;SDS011;11311;52.192;20.900;2023-02-15T01:16:40;72.05;;;48.53;;
22284;SDS011;11311;52.192;20.900;2023-02-15T01:19:11;74.85;;;48.83;;
22284;SDS011;11311;52.192;20.900;2023-02-15T01:21:40;76.83;;;49.30;;
22284;SDS011;11311;52.192;20.900;2023-02-15T01:24:11;72.70;;;48.33;;
22284;SDS011;11311;52.192;20.900;2023-02-15T01:26:41;69.43;;;46.22;;
22284;SDS011;11311;52.192;20.900;2023-02-15T01:29:11;74.53;;;47.83;;
22284;SDS011;11311;52.192;20.900;2023-02-15T01:31:39;69.88;;;47.17;;
22284;SDS011;11311;52.192;20.900;2023-02-15T01:34:10;65.93;;;47.67;;
22284;SDS011;11311;52.192;20.900;2023-02-15T01:36:39;72.43;;;46.28;;
22284;SDS011;11311;52.192;20.900;2023-02-15T01:39:08;70.43;;;46.63;;
22284;SDS011;11311;52.192;20.900;2023-02-15T01:41:37;74.38;;;47.05;;
22284;SDS011;11311;52.192;20.900;2023-02-15T01:47:08;81.03;;;48.15;;
22284;SDS011;11311;52.192;20.900;2023-02-15T01:49:39;76.30;;;49.42;;
22284;SDS011;11311;52.192;20.900;2023-02-15T01:52:08;73.10;;;46.25;;
22284;SDS011;11311;52.192;20.900;2023-02-15T01:54:39;79.57;;;44.92;;
22284;SDS011;11311;52.192;20.900;2023-02-15T01:57:10;68.57;;;47.80;;
22284;SDS011;11311;52.192;20.900;2023-02-15T01:59:41;74.75;;;48.80;;
22284;SDS011;11311;52.192;20.900;2023-02-15T02:02:12;80.65;;;49.33;;
22284;SDS011;11311;52.192;20.900;2023-02-15T02:04:45;73.03;;;47.63;;
22284;SDS011;11311;52.192;20.900;2023-02-15T02:07:19;67.35;;;43.92;;
22284;SDS011;11311;52.192;20.900;2023-02-15T02:09:49;69.97;;;45.25;;
22284;SDS011;11311;52.192;20.900;2023-02-15T02:12:23;72.10;;;46.50;;
22284;SDS011;11311;52.192;20.900;2023-02-15T02:14:52;71.97;;;47.70;;
22284;SDS011;11311;52.192;20.900;2023-02-15T02:17:24;63.78;;;44.38;;
22284;SDS011;11311;52.192;20.900;2023-02-15T02:20:15;77.15;;;47.65;;
22284;SDS011;11311;52.192;20.900;2023-02-15T02:31:58;73.70;;;46.67;;
22284;SDS011;11311;52.192;20.900;2023-02-15T02:34:57;68.95;;;45.25;;
22284;SDS011;11311;52.192;20.900;2023-02-15T02:37:30;65.88;;;43.72;;
22284;SDS011;11311;52.192;20.900;2023-02-15T02:40:04;66.90;;;44.80;;
22284;SDS011;11311;52.192;20.900;2023-02-15T02:42:37;75.43;;;46.30;;
22284;SDS011;11311;52.192;20.900;2023-02-15T02:45:09;69.28;;;46.72;;
22284;SDS011;11311;52.192;20.900;2023-02-15T02:47:43;75.32;;;46.75;;
22284;SDS011;11311;52.192;20.900;2023-02-15T02:50:16;63.13;;;44.20;;
22284;SDS011;11311;52.192;20.900;2023-02-15T02:52:47;77.28;;;45.83;;
22284;SDS011;11311;52.192;20.900;2023-02-15T02:55:17;78.13;;;47.83;;
22284;SDS011;11311;52.192;20.900;2023-02-15T02:57:51;78.47;;;49.65;;
22284;SDS011;11311;52.192;20.900;2023-02-15T03:00:23;69.95;;;45.05;;
22284;SDS011;11311;52.192;20.900;2023-02-15T03:02:54;73.93;;;45.08;;
22284;SDS011;11311;52.192;20.900;2023-02-15T03:05:27;75.13;;;44.78;;
22284;SDS011;11311;52.192;20.900;2023-02-15T03:07:57;64.10;;;43.85;;
22284;SDS011;11311;52.192;20.900;2023-02-15T03:10:28;69.55;;;44.65;;
22284;SDS011;11311;52.192;20.900;2023-02-15T03:12:57;72.30;;;45.22;;
22284;SDS011;11311;52.192;20.900;2023-02-15T03:15:28;70.65;;;46.22;;
22284;SDS011;11311;52.192;20.900;2023-02-15T03:18:20;74.50;;;47.30;;
22284;SDS011;11311;52.192;20.900;2023-02-15T03:20:52;69.20;;;43.53;;
22284;SDS011;11311;52.192;20.900;2023-02-15T03:23:24;71.68;;;44.58;;
22284;SDS011;11311;52.192;20.900;2023-02-15T03:25:55;65.95;;;43.67;;
22284;SDS011;11311;52.192;20.900;2023-02-15T03:28:33;65.57;;;43.55;;
22284;SDS011;11311;52.192;20.900;2023-02-15T03:31:05;57.67;;;41.05;;
22284;SDS011;11311;52.192;20.900;2023-02-15T03:33:35;68.00;;;41.17;;
22284;SDS011;11311;52.192;20.900;2023-02-15T03:36:11;62.15;;;42.42;;
22284;SDS011;11311;52.192;20.900;2023-02-15T03:38:47;60.20;;;39.17;;
22284;SDS011;11311;52.192;20.900;2023-02-15T03:41:20;65.60;;;43.00;;
22284;SDS011;11311;52.192;20.900;2023-02-15T03:43:53;61.92;;;40.45;;
22284;SDS011;11311;52.192;20.900;2023-02-15T03:46:26;65.00;;;39.55;;
22284;SDS011;11311;52.192;20.900;2023-02-15T03:48:58;50.75;;;34.13;;
22284;SDS011;11311;52.192;20.900;2023-02-15T03:51:32;55.05;;;36.55;;
22284;SDS011;11311;52.192;20.900;2023-02-15T03:54:07;48.08;;;30.83;;
22284;SDS011;11311;52.192;20.900;2023-02-15T03:59:08;45.58;;;30.38;;
22284;SDS011;11311;52.192;20.900;2023-02-15T04:01:55;45.90;;;31.17;;
22284;SDS011;11311;52.192;20.900;2023-02-15T04:04:31;37.47;;;28.58;;
22284;SDS011;11311;52.192;20.900;2023-02-15T04:07:04;46.67;;;29.70;;
22284;SDS011;11311;52.192;20.900;2023-02-15T04:09:34;43.42;;;25.70;;
22284;SDS011;11311;52.192;20.900;2023-02-15T04:12:21;43.05;;;26.58;;
22284;SDS011;11311;52.192;20.900;2023-02-15T04:14:50;38.85;;;27.90;;
22284;SDS011;11311;52.192;20.900;2023-02-15T04:17:36;37.38;;;27.23;;
22284;SDS011;11311;52.192;20.900;2023-02-15T04:20:06;43.70;;;28.02;;
22284;SDS011;11311;52.192;20.900;2023-02-15T04:22:55;37.38;;;27.48;;
22284;SDS011;11311;52.192;20.900;2023-02-15T04:25:41;40.35;;;30.27;;
22284;SDS011;11311;52.192;20.900;2023-02-15T04:28:10;41.28;;;29.98;;
22284;SDS011;11311;52.192;20.900;2023-02-15T04:30:40;41.13;;;30.73;;
22284;SDS011;11311;52.192;20.900;2023-02-15T04:33:09;44.65;;;30.23;;
22284;SDS011;11311;52.192;20.900;2023-02-15T04:35:38;48.70;;;31.13;;
22284;SDS011;11311;52.192;20.900;2023-02-15T04:38:08;42.00;;;30.63;;
22284;SDS011;11311;52.192;20.900;2023-02-15T04:40:37;44.88;;;29.33;;
22284;SDS011;11311;52.192;20.900;2023-02-15T04:43:06;42.88;;;31.85;;
22284;SDS011;11311;52.192;20.900;2023-02-15T04:45:35;46.17;;;33.08;;
22284;SDS011;11311;52.192;20.900;2023-02-15T04:48:04;49.28;;;30.83;;
22284;SDS011;11311;52.192;20.900;2023-02-15T04:50:34;46.03;;;31.35;;
22284;SDS011;11311;52.192;20.900;2023-02-15T04:53:03;30.85;;;23.30;;
22284;SDS011;11311;52.192;20.900;2023-02-15T04:55:33;44.75;;;30.85;;
22284;SDS011;11311;52.192;20.900;2023-02-15T04:58:02;39.58;;;28.52;;
22284;SDS011;11311;52.192;20.900;2023-02-15T05:00:31;39.78;;;26.90;;
22284;SDS011;11311;52.192;20.900;2023-02-15T05:03:01;44.88;;;31.52;;
22284;SDS011;11311;52.192;20.900;2023-02-15T05:05:30;36.90;;;26.55;;
22284;SDS011;11311;52.192;20.900;2023-02-15T05:07:59;36.93;;;28.43;;
22284;SDS011;11311;52.192;20.900;2023-02-15T05:10:28;40.05;;;28.98;;
22284;SDS011;11311;52.192;20.900;2023-02-15T05:12:59;43.05;;;31.52;;
22284;SDS011;11311;52.192;20.900;2023-02-15T05:15:28;50.50;;;30.58;;
22284;SDS011;11311;52.192;20.900;2023-02-15T05:17:57;49.78;;;32.83;;
22284;SDS011;11311;52.192;20.900;2023-02-15T05:20:26;46.47;;;32.95;;
22284;SDS011;11311;52.192;20.900;2023-02-15T05:22:55;43.28;;;28.02;;
22284;SDS011;11311;52.192;20.900;2023-02-15T05:25:24;44.95;;;31.92;;
22284;SDS011;11311;52.192;20.900;2023-02-15T05:28:15;41.75;;;29.48;;
22284;SDS011;11311;52.192;20.900;2023-02-15T05:30:50;41.03;;;29.83;;
22284;SDS011;11311;52.192;20.900;2023-02-15T05:33:20;41.50;;;27.80;;
22284;SDS011;11311;52.192;20.900;2023-02-15T05:35:49;40.67;;;28.13;;
22284;SDS011;11311;52.192;20.900;2023-02-15T05:38:18;46.83;;;30.95;;
22284;SDS011;11311;52.192;20.900;2023-02-15T05:40:47;44.03;;;28.50;;
22284;SDS011;11311;52.192;20.900;2023-02-15T05:43:17;47.25;;;30.63;;
22284;SDS011;11311;52.192;20.900;2023-02-15T05:45:47;44.88;;;31.23;;
22284;SDS011;11311;52.192;20.900;2023-02-15T05:48:17;46.92;;;31.02;;
22284;SDS011;11311;52.192;20.900;2023-02-15T05:50:56;46.30;;;29.20;;
22284;SDS011;11311;52.192;20.900;2023-02-15T05:53:25;44.92;;;31.77;;
22284;SDS011;11311;52.192;20.900;2023-02-15T05:55:55;49.13;;;33.28;;
22284;SDS011;11311;52.192;20.900;2023-02-15T05:58:29;47.45;;;32.15;;
22284;SDS011;11311;52.192;20.900;2023-02-15T06:00:58;44.60;;;29.98;;
22284;SDS011;11311;52.192;20.900;2023-02-15T06:03:28;44.83;;;33.08;;
22284;SDS011;11311;52.192;20.900;2023-02-15T06:05:57;45.75;;;31.75;;
22284;SDS011;11311;52.192;20.900;2023-02-15T06:08:27;46.40;;;34.53;;
22284;SDS011;11311;52.192;20.900;2023-02-15T06:10:56;51.90;;;35.55;;
22284;SDS011;11311;52.192;20.900;2023-02-15T06:13:24;52.08;;;35.05;;
22284;SDS011;11311;52.192;20.900;2023-02-15T06:15:55;45.58;;;29.67;;
22284;SDS011;11311;52.192;20.900;2023-02-15T06:18:24;45.72;;;29.77;;
22284;SDS011;11311;52.192;20.900;2023-02-15T06:20:53;38.40;;;23.67;;
22284;SDS011;11311;52.192;20.900;2023-02-15T06:23:23;46.58;;;27.52;;
22284;SDS011;11311;52.192;20.900;2023-02-15T06:25:51;44.25;;;31.83;;
22284;SDS011;11311;52.192;20.900;2023-02-15T06:28:20;43.35;;;29.67;;
22284;SDS011;11311;52.192;20.900;2023-02-15T06:30:49;47.75;;;32.13;;
22284;SDS011;11311;52.192;20.900;2023-02-15T06:33:20;51.10;;;31.52;;
22284;SDS011;11311;52.192;20.900;2023-02-15T06:35:50;52.75;;;33.38;;
22284;SDS011;11311;52.192;20.900;2023-02-15T06:38:19;51.63;;;31.67;;
22284;SDS011;11311;52.192;20.900;2023-02-15T06:40:50;48.83;;;31.70;;
22284;SDS011;11311;52.192;20.900;2023-02-15T06:43:19;50.88;;;34.35;;
22284;SDS011;11311;52.192;20.900;2023-02-15T06:45:48;48.40;;;30.60;;
22284;SDS011;11311;52.192;20.900;2023-02-15T06:48:17;43.78;;;30.65;;
22284;SDS011;11311;52.192;20.900;2023-02-15T06:50:48;47.75;;;28.27;;
22284;SDS011;11311;52.192;20.900;2023-02-15T06:53:17;46.67;;;30.25;;
22284;SDS011;11311;52.192;20.900;2023-02-15T06:55:46;47.35;;;31.13;;
22284;SDS011;11311;52.192;20.900;2023-02-15T06:58:15;49.58;;;31.15;;
22284;SDS011;11311;52.192;20.900;2023-02-15T07:00:44;43.80;;;30.58;;
22284;SDS011;11311;52.192;20.900;2023-02-15T07:03:13;50.15;;;30.63;;
22284;SDS011;11311;52.192;20.900;2023-02-15T07:05:43;47.28;;;32.40;;
22284;SDS011;11311;52.192;20.900;2023-02-15T07:08:14;46.92;;;31.90;;
22284;SDS011;11311;52.192;20.900;2023-02-15T07:13:12;38.28;;;20.80;;
22284;SDS011;11311;52.192;20.900;2023-02-15T07:15:40;56.20;;;31.75;;
22284;SDS011;11311;52.192;20.900;2023-02-15T07:18:09;55.25;;;32.00;;
22284;SDS011;11311;52.192;20.900;2023-02-15T07:20:39;59.40;;;33.73;;
22284;SDS011;11311;52.192;20.900;2023-02-15T07:23:08;51.67;;;30.55;;
22284;SDS011;11311;52.192;20.900;2023-02-15T07:25:39;53.63;;;31.67;;
22284;SDS011;11311;52.192;20.900;2023-02-15T07:28:08;49.97;;;30.42;;
22284;SDS011;11311;52.192;20.900;2023-02-15T07:30:37;43.23;;;24.07;;
22284;SDS011;11311;52.192;20.900;2023-02-15T07:33:07;47.95;;;28.30;;
22284;SDS011;11311;52.192;20.900;2023-02-15T07:35:52;48.40;;;29.25;;
22284;SDS011;11311;52.192;20.900;2023-02-15T07:40:51;44.35;;;26.67;;
22284;SDS011;11311;52.192;20.900;2023-02-15T07:43:27;42.55;;;26.27;;
22284;SDS011;11311;52.192;20.900;2023-02-15T07:45:58;42.00;;;27.92;;
22284;SDS011;11311;52.192;20.900;2023-02-15T07:48:28;42.05;;;27.15;;
22284;SDS011;11311;52.192;20.900;2023-02-15T07:50:58;51.95;;;29.58;;
22284;SDS011;11311;52.192;20.900;2023-02-15T07:55:59;40.67;;;24.60;;
22284;SDS011;11311;52.192;20.900;2023-02-15T07:58:29;45.63;;;26.40;;
22284;SDS011;11311;52.192;20.900;2023-02-15T08:01:12;39.10;;;24.92;;
22284;SDS011;11311;52.192;20.900;2023-02-15T08:03:42;28.88;;;14.13;;
22284;SDS011;11311;52.192;20.900;2023-02-15T08:06:11;41.83;;;25.75;;
22284;SDS011;11311;52.192;20.900;2023-02-15T08:08:41;41.40;;;26.45;;
22284;SDS011;11311;52.192;20.900;2023-02-15T08:11:16;39.37;;;27.17;;
22284;SDS011;11311;52.192;20.900;2023-02-15T08:14:04;46.10;;;26.30;;
22284;SDS011;11311;52.192;20.900;2023-02-15T08:16:35;44.42;;;26.85;;
22284;SDS011;11311;52.192;20.900;2023-02-15T08:19:06;38.13;;;24.05;;
22284;SDS011;11311;52.192;20.900;2023-02-15T08:21:37;33.97;;;22.15;;
22284;SDS011;11311;52.192;20.900;2023-02-15T08:24:08;32.83;;;22.30;;
22284;SDS011;11311;52.192;20.900;2023-02-15T08:26:39;33.13;;;19.90;;
22284;SDS011;11311;52.192;20.900;2023-02-15T08:29:10;32.78;;;22.42;;
22284;SDS011;11311;52.192;20.900;2023-02-15T08:31:39;33.00;;;21.17;;
22284;SDS011;11311;52.192;20.900;2023-02-15T08:34:09;30.85;;;20.73;;
22284;SDS011;11311;52.192;20.900;2023-02-15T08:36:39;32.60;;;20.15;;
22284;SDS011;11311;52.192;20.900;2023-02-15T08:39:08;36.20;;;23.90;;
22284;SDS011;11311;52.192;20.900;2023-02-15T08:41:38;36.40;;;22.75;;
22284;SDS011;11311;52.192;20.900;2023-02-15T08:44:10;41.60;;;23.63;;
22284;SDS011;11311;52.192;20.900;2023-02-15T08:46:39;46.67;;;24.40;;
22284;SDS011;11311;52.192;20.900;2023-02-15T08:49:10;37.58;;;25.20;;
22284;SDS011;11311;52.192;20.900;2023-02-15T08:51:41;43.40;;;25.42;;
22284;SDS011;11311;52.192;20.900;2023-02-15T08:54:12;28.48;;;16.20;;
22284;SDS011;11311;52.192;20.900;2023-02-15T08:56:44;45.20;;;22.25;;
22284;SDS011;11311;52.192;20.900;2023-02-15T08:59:14;38.67;;;21.60;;
22284;SDS011;11311;52.192;20.900;2023-02-15T09:01:44;37.25;;;22.90;;
22284;SDS011;11311;52.192;20.900;2023-02-15T09:04:15;35.30;;;22.83;;
22284;SDS011;11311;52.192;20.900;2023-02-15T09:06:45;38.80;;;23.42;;
22284;SDS011;11311;52.192;20.900;2023-02-15T09:09:17;42.15;;;24.02;;
22284;SDS011;11311;52.192;20.900;2023-02-15T09:11:48;38.60;;;24.77;;
22284;SDS011;11311;52.192;20.900;2023-02-15T09:14:26;44.20;;;25.52;;
22284;SDS011;11311;52.192;20.900;2023-02-15T09:16:55;45.80;;;26.67;;
22284;SDS011;11311;52.192;20.900;2023-02-15T09:19:24;27.17;;;17.73;;
22284;SDS011;11311;52.192;20.900;2023-02-15T09:21:53;41.90;;;25.98;;
22284;SDS011;11311;52.192;20.900;2023-02-15T09:24:23;39.03;;;22.05;;
22284;SDS011;11311;52.192;20.900;2023-02-15T09:26:53;44.83;;;26.52;;
22284;SDS011;11311;52.192;20.900;2023-02-15T09:29:22;39.17;;;25.48;;
22284;SDS011;11311;52.192;20.900;2023-02-15T09:31:51;44.97;;;26.42;;
22284;SDS011;11311;52.192;20.900;2023-02-15T09:34:21;44.28;;;23.98;;
22284;SDS011;11311;52.192;20.900;2023-02-15T09:36:50;44.53;;;25.98;;
22284;SDS011;11311;52.192;20.900;2023-02-15T09:39:21;44.92;;;27.27;;
22284;SDS011;11311;52.192;20.900;2023-02-15T09:44:48;46.92;;;26.75;;
22284;SDS011;11311;52.192;20.900;2023-02-15T09:47:33;36.40;;;21.20;;
22284;SDS011;11311;52.192;20.900;2023-02-15T09:50:12;47.35;;;27.67;;
22284;SDS011;11311;52.192;20.900;2023-02-15T09:52:48;47.30;;;27.13;;
22284;SDS011;11311;52.192;20.900;2023-02-15T09:55:33;41.22;;;25.92;;
22284;SDS011;11311;52.192;20.900;2023-02-15T09:58:12;43.92;;;25.50;;
22284;SDS011;11311;52.192;20.900;2023-02-15T10:00:47;27.33;;;17.23;;
22284;SDS011;11311;52.192;20.900;2023-02-15T10:03:23;41.05;;;24.77;;
22284;SDS011;11311;52.192;20.900;2023-02-15T10:06:03;48.08;;;24.42;;
22284;SDS011;11311;52.192;20.900;2023-02-15T10:11:41;45.08;;;26.92;;
22284;SDS011;11311;52.192;20.900;2023-02-15T10:14:44;29.55;;;19.67;;
22284;SDS011;11311;52.192;20.900;2023-02-15T10:17:33;34.03;;;20.90;;
22284;SDS011;11311;52.192;20.900;2023-02-15T10:20:13;31.67;;;19.83;;
22284;SDS011;11311;52.192;20.900;2023-02-15T10:22:51;29.27;;;21.58;;
22284;SDS011;11311;52.192;20.900;2023-02-15T10:25:32;39.70;;;23.02;;
22284;SDS011;11311;52.192;20.900;2023-02-15T10:28:09;37.88;;;23.13;;
22284;SDS011;11311;52.192;20.900;2023-02-15T10:30:47;39.88;;;24.77;;
22284;SDS011;11311;52.192;20.900;2023-02-15T10:33:26;36.67;;;23.00;;
22284;SDS011;11311;52.192;20.900;2023-02-15T10:36:05;38.47;;;21.10;;
22284;SDS011;11311;52.192;20.900;2023-02-15T10:38:40;40.53;;;23.02;;
22284;SDS011;11311;52.192;20.900;2023-02-15T10:41:15;38.45;;;20.65;;
22284;SDS011;11311;52.192;20.900;2023-02-15T10:43:55;37.50;;;23.52;;
22284;SDS011;11311;52.192;20.900;2023-02-15T10:49:35;38.72;;;22.98;;
22284;SDS011;11311;52.192;20.900;2023-02-15T10:52:17;36.63;;;23.52;;
22284;SDS011;11311;52.192;20.900;2023-02-15T10:54:53;37.00;;;24.17;;
22284;SDS011;11311;52.192;20.900;2023-02-15T10:57:26;37.97;;;24.80;;
22284;SDS011;11311;52.192;20.900;2023-02-15T11:00:05;38.78;;;20.98;;
22284;SDS011;11311;52.192;20.900;2023-02-15T11:05:47;39.72;;;25.73;;
22284;SDS011;11311;52.192;20.900;2023-02-15T11:08:22;40.00;;;25.50;;
22284;SDS011;11311;52.192;20.900;2023-02-15T11:10:54;32.92;;;18.02;;
22284;SDS011;11311;52.192;20.900;2023-02-15T11:13:26;36.47;;;23.45;;
22284;SDS011;11311;52.192;20.900;2023-02-15T11:16:02;40.70;;;26.50;;
22284;SDS011;11311;52.192;20.900;2023-02-15T11:18:34;38.97;;;21.42;;
22284;SDS011;11311;52.192;20.900;2023-02-15T11:21:07;40.50;;;26.88;;
22284;SDS011;11311;52.192;20.900;2023-02-15T11:23:40;43.58;;;27.15;;
22284;SDS011;11311;52.192;20.900;2023-02-15T11:26:13;46.13;;;29.17;;
22284;SDS011;11311;52.192;20.900;2023-02-15T11:28:46;25.80;;;16.58;;
22284;SDS011;11311;52.192;20.900;2023-02-15T11:31:18;27.95;;;15.77;;
22284;SDS011;11311;52.192;20.900;2023-02-15T11:33:50;38.28;;;22.00;;
22284;SDS011;11311;52.192;20.900;2023-02-15T11:36:24;39.20;;;23.23;;
22284;SDS011;11311;52.192;20.900;2023-02-15T11:38:56;44.10;;;27.17;;
22284;SDS011;11311;52.192;20.900;2023-02-15T11:41:28;46.00;;;29.33;;
22284;SDS011;11311;52.192;20.900;2023-02-15T11:43:59;45.92;;;29.85;;
22284;SDS011;11311;52.192;20.900;2023-02-15T11:46:33;54.33;;;32.25;;
22284;SDS011;11311;52.192;20.900;2023-02-15T11:49:02;50.30;;;29.85;;
22284;SDS011;11311;52.192;20.900;2023-02-15T11:51:37;53.90;;;32.92;;
22284;SDS011;11311;52.192;20.900;2023-02-15T11:54:07;51.42;;;29.90;;
22284;SDS011;11311;52.192;20.900;2023-02-15T11:56:37;50.33;;;30.05;;
22284;SDS011;11311;52.192;20.900;2023-02-15T11:59:06;61.80;;;36.88;;
22284;SDS011;11311;52.192;20.900;2023-02-15T12:01:40;58.25;;;35.15;;
22284;SDS011;11311;52.192;20.900;2023-02-15T12:04:13;56.40;;;32.58;;
22284;SDS011;11311;52.192;20.900;2023-02-15T12:06:49;57.28;;;36.78;;
22284;SDS011;11311;52.192;20.900;2023-02-15T12:09:31;68.97;;;39.28;;
22284;SDS011;11311;52.192;20.900;2023-02-15T12:12:22;61.10;;;37.47;;
22284;SDS011;11311;52.192;20.900;2023-02-15T12:14:53;52.85;;;31.20;;
22284;SDS011;11311;52.192;20.900;2023-02-15T12:17:24;51.33;;;33.90;;
22284;SDS011;11311;52.192;20.900;2023-02-15T12:19:55;61.83;;;33.00;;
22284;SDS011;11311;52.192;20.900;2023-02-15T12:22:27;60.08;;;35.67;;
22284;SDS011;11311;52.192;20.900;2023-02-15T12:24:59;64.57;;;36.75;;
22284;SDS011;11311;52.192;20.900;2023-02-15T12:27:30;58.90;;;37.65;;
22284;SDS011;11311;52.192;20.900;2023-02-15T12:30:03;58.33;;;29.75;;
22284;SDS011;11311;52.192;20.900;2023-02-15T12:32:34;58.20;;;33.85;;
22284;SDS011;11311;52.192;20.900;2023-02-15T12:35:07;57.97;;;34.95;;
22284;SDS011;11311;52.192;20.900;2023-02-15T12:37:39;54.17;;;32.10;;
22284;SDS011;11311;52.192;20.900;2023-02-15T12:40:18;59.47;;;36.13;;
22284;SDS011;11311;52.192;20.900;2023-02-15T12:42:49;67.18;;;38.15;;
22284;SDS011;11311;52.192;20.900;2023-02-15T12:45:22;43.50;;;24.55;;
22284;SDS011;11311;52.192;20.900;2023-02-15T12:48:09;51.72;;;25.90;;
22284;SDS011;11311;52.192;20.900;2023-02-15T12:50:45;56.58;;;30.10;;
22284;SDS011;11311;52.192;20.900;2023-02-15T12:53:23;46.75;;;27.58;;
22284;SDS011;11311;52.192;20.900;2023-02-15T12:56:00;43.65;;;25.80;;
22284;SDS011;11311;52.192;20.900;2023-02-15T13:01:04;64.95;;;35.28;;
22284;SDS011;11311;52.192;20.900;2023-02-15T13:03:55;57.47;;;37.78;;
22284;SDS011;11311;52.192;20.900;2023-02-15T13:06:26;39.38;;;17.67;;
22284;SDS011;11311;52.192;20.900;2023-02-15T13:08:57;44.80;;;22.05;;
22284;SDS011;11311;52.192;20.900;2023-02-15T13:11:28;65.57;;;34.83;;
22284;SDS011;11311;52.192;20.900;2023-02-15T13:14:02;56.13;;;31.08;;
22284;SDS011;11311;52.192;20.900;2023-02-15T13:19:02;42.75;;;25.42;;
22284;SDS011;11311;52.192;20.900;2023-02-15T13:21:33;64.22;;;33.58;;
22284;SDS011;11311;52.192;20.900;2023-02-15T13:24:10;65.60;;;37.45;;
22284;SDS011;11311;52.192;20.900;2023-02-15T13:26:44;53.88;;;34.28;;
22284;SDS011;11311;52.192;20.900;2023-02-15T13:29:16;39.35;;;25.92;;
22284;SDS011;11311;52.192;20.900;2023-02-15T13:31:46;49.30;;;32.00;;
22284;SDS011;11311;52.192;20.900;2023-02-15T13:36:48;59.42;;;36.78;;
22284;SDS011;11311;52.192;20.900;2023-02-15T13:39:24;68.97;;;37.95;;
22284;SDS011;11311;52.192;20.900;2023-02-15T13:41:59;85.25;;;38.50;;
22284;SDS011;11311;52.192;20.900;2023-02-15T13:44:36;69.80;;;40.30;;
22284;SDS011;11311;52.192;20.900;2023-02-15T13:47:19;43.58;;;25.30;;
22284;SDS011;11311;52.192;20.900;2023-02-15T13:49:54;61.13;;;35.63;;
22284;SDS011;11311;52.192;20.900;2023-02-15T13:52:32;50.17;;;24.65;;
22284;SDS011;11311;52.192;20.900;2023-02-15T13:55:17;46.17;;;24.67;;
22284;SDS011;11311;52.192;20.900;2023-02-15T13:57:57;65.07;;;34.30;;
22284;SDS011;11311;52.192;20.900;2023-02-15T14:00:55;53.03;;;31.27;;
22284;SDS011;11311;52.192;20.900;2023-02-15T14:03:37;59.10;;;29.77;;
22284;SDS011;11311;52.192;20.900;2023-02-15T14:06:25;62.57;;;37.10;;
22284;SDS011;11311;52.192;20.900;2023-02-15T14:09:06;69.47;;;38.40;;
22284;SDS011;11311;52.192;20.900;2023-02-15T14:11:43;60.88;;;37.25;;
22284;SDS011;11311;52.192;20.900;2023-02-15T14:14:21;59.95;;;38.72;;
22284;SDS011;11311;52.192;20.900;2023-02-15T14:16:59;47.53;;;26.88;;
22284;SDS011;11311;52.192;20.900;2023-02-15T14:19:35;69.20;;;37.92;;
22284;SDS011;11311;52.192;20.900;2023-02-15T14:22:08;52.30;;;25.48;;
22284;SDS011;11311;52.192;20.900;2023-02-15T14:24:42;60.30;;;36.97;;
22284;SDS011;11311;52.192;20.900;2023-02-15T14:27:17;76.70;;;43.55;;
22284;SDS011;11311;52.192;20.900;2023-02-15T14:29:51;69.30;;;41.10;;
22284;SDS011;11311;52.192;20.900;2023-02-15T14:32:24;42.97;;;26.90;;
22284;SDS011;11311;52.192;20.900;2023-02-15T14:34:56;64.63;;;40.75;;
22284;SDS011;11311;52.192;20.900;2023-02-15T14:40:00;57.00;;;30.23;;
22284;SDS011;11311;52.192;20.900;2023-02-15T14:42:50;43.50;;;21.90;;
22284;SDS011;11311;52.192;20.900;2023-02-15T14:45:24;42.15;;;22.95;;
22284;SDS011;11311;52.192;20.900;2023-02-15T14:48:03;53.50;;;30.33;;
22284;SDS011;11311;52.192;20.900;2023-02-15T14:50:41;65.88;;;36.03;;
22284;SDS011;11311;52.192;20.900;2023-02-15T14:53:20;66.78;;;38.22;;
22284;SDS011;11311;52.192;20.900;2023-02-15T14:56:05;72.50;;;42.58;;
22284;SDS011;11311;52.192;20.900;2023-02-15T14:58:37;62.35;;;37.13;;
22284;SDS011;11311;52.192;20.900;2023-02-15T15:01:07;65.93;;;37.40;;
22284;SDS011;11311;52.192;20.900;2023-02-15T15:03:41;69.32;;;40.97;;
22284;SDS011;11311;52.192;20.900;2023-02-15T15:06:23;66.97;;;37.42;;
22284;SDS011;11311;52.192;20.900;2023-02-15T15:08:55;71.43;;;41.78;;
22284;SDS011;11311;52.192;20.900;2023-02-15T15:11:39;48.05;;;24.60;;
22284;SDS011;11311;52.192;20.900;2023-02-15T15:14:35;66.82;;;37.25;;
22284;SDS011;11311;52.192;20.900;2023-02-15T15:17:05;60.20;;;36.38;;
22284;SDS011;11311;52.192;20.900;2023-02-15T15:22:27;63.03;;;36.28;;
22284;SDS011;11311;52.192;20.900;2023-02-15T15:24:56;64.00;;;37.53;;
22284;SDS011;11311;52.192;20.900;2023-02-15T15:33:44;66.55;;;36.03;;
22284;SDS011;11311;52.192;20.900;2023-02-15T15:39:12;52.50;;;28.13;;